Sanbornville, New Hampshire
Current Conditions -  °F | °C
As of 12:35 PM on Thursday 30 Oct 2014 (Local Time) from KSFM Reporting Station
Broken Clouds Broken Clouds  
Wind Chill: 55°   Ceiling: 7500
Heat Index: 55°   Visibility: 10mi
Dew Point: 36°   Wind: 12mph
Humidity: 47%   Direction: 270°W
Pressure: 29.9"   Gusts: NA
Location:  43.55°N, 71.03°W
Report Text: KSFM 301635Z AUTO 27010KT 10SM BKN075 13/02 A2990 RMK AO1
Loading
Personal Weather Stations






























Interactive Weather Map
Tropical Storm Tracking
New forecast layout! Learn more

10-Day Weather Forecast

Advertisements
Track Severe Weather on mobile